createdAt,value
2022-10-12T00:00:05.411Z,23.80
2022-10-12T00:02:32.359Z,26.23
2022-10-12T00:04:59.211Z,26.90
2022-10-12T00:07:26.083Z,25.37
2022-10-12T00:09:52.914Z,29.43
2022-10-12T00:12:19.720Z,27.97
2022-10-12T00:14:46.563Z,25.93
2022-10-12T00:17:13.368Z,23.73
2022-10-12T00:19:40.588Z,28.20
2022-10-12T00:22:07.449Z,27.53
2022-10-12T00:24:34.205Z,27.80
2022-10-12T00:27:01.162Z,27.70
2022-10-12T00:29:29.333Z,26.60
2022-10-12T00:31:56.105Z,27.17
2022-10-12T00:34:22.848Z,24.67
2022-10-12T00:36:49.684Z,30.73
2022-10-12T00:39:16.467Z,29.03
2022-10-12T00:41:44.061Z,27.50
2022-10-12T00:44:32.511Z,28.53
2022-10-12T00:47:01.195Z,30.07
2022-10-12T00:49:28.345Z,26.37
2022-10-12T00:52:01.798Z,30.20
2022-10-12T00:54:33.581Z,28.43
2022-10-12T00:57:04.258Z,27.37
2022-10-12T00:59:44.557Z,26.17
2022-10-12T01:02:12.767Z,23.60
2022-10-12T01:04:40.312Z,25.70
2022-10-12T01:07:07.419Z,30.10
2022-10-12T01:09:34.236Z,29.43
2022-10-12T01:12:03.727Z,27.40
2022-10-12T01:14:30.508Z,27.70
2022-10-12T01:17:01.567Z,27.47
2022-10-12T01:19:48.567Z,21.53
2022-10-12T01:22:20.799Z,26.43
2022-10-12T01:24:51.833Z,27.27
2022-10-12T01:27:34.276Z,25.87
2022-10-12T01:30:22.154Z,22.60
2022-10-12T01:33:09.303Z,27.83
2022-10-12T01:36:16.616Z,26.47
2022-10-12T01:38:43.389Z,25.87
2022-10-12T01:41:22.543Z,27.77
2022-10-12T01:43:51.755Z,28.33
2022-10-12T01:46:18.521Z,23.73
2022-10-12T01:48:47.667Z,25.60
2022-10-12T01:51:31.732Z,28.60
2022-10-12T01:54:22.899Z,29.90
2022-10-12T01:56:55.899Z,26.03
2022-10-12T01:59:43.043Z,27.73
2022-10-12T02:02:38.637Z,25.90
2022-10-12T02:05:31.090Z,29.33
2022-10-12T02:08:23.850Z,25.37
2022-10-12T02:10:59.554Z,22.27
2022-10-12T02:13:32.499Z,33.20
2022-10-12T02:16:03.447Z,23.93
2022-10-12T02:18:31.745Z,25.83
2022-10-12T02:21:01.022Z,25.07
2022-10-12T02:23:28.709Z,26.00
2022-10-12T02:25:58.518Z,24.83
2022-10-12T02:28:28.149Z,26.80
2022-10-12T02:31:33.517Z,25.83
2022-10-12T02:34:11.822Z,28.03
2022-10-12T02:36:49.766Z,22.90
2022-10-12T02:39:29.405Z,22.33
2022-10-12T02:42:01.699Z,27.33
2022-10-12T02:44:33.477Z,26.43
2022-10-12T02:47:04.460Z,25.10
2022-10-12T02:49:34.208Z,28.90
2022-10-12T02:52:05.848Z,32.20
2022-10-12T02:54:33.012Z,25.90
2022-10-12T02:57:00.001Z,25.93
2022-10-12T02:59:26.883Z,29.80
2022-10-12T03:01:53.637Z,27.10
2022-10-12T03:04:20.620Z,23.53
2022-10-12T03:06:47.981Z,26.33
2022-10-12T03:09:14.795Z,24.03
2022-10-12T03:11:44.779Z,24.00
2022-10-12T03:14:13.431Z,22.63
2022-10-12T03:16:40.335Z,26.73
2022-10-12T03:19:07.504Z,28.07
2022-10-12T03:21:34.885Z,28.67
2022-10-12T03:24:01.994Z,23.40
2022-10-12T03:26:28.775Z,27.90
2022-10-12T03:28:55.685Z,26.10
2022-10-12T03:31:23.069Z,28.30
2022-10-12T03:33:49.956Z,26.53
2022-10-12T03:36:17.010Z,27.00
2022-10-12T03:38:43.768Z,25.53
2022-10-12T03:41:10.605Z,20.97
2022-10-12T03:43:37.453Z,28.10
2022-10-12T03:46:04.314Z,29.10
2022-10-12T03:48:31.130Z,26.93
2022-10-12T03:50:58.427Z,33.67
2022-10-12T03:53:25.763Z,24.07
2022-10-12T03:55:52.732Z,28.87
2022-10-12T03:58:19.819Z,26.73
2022-10-12T04:00:46.883Z,30.33
2022-10-12T04:03:13.731Z,26.50
2022-10-12T04:05:40.983Z,28.30
2022-10-12T04:08:07.772Z,26.57
2022-10-12T04:10:34.727Z,26.70
2022-10-12T04:13:01.597Z,27.87
2022-10-12T04:15:28.490Z,24.93
2022-10-12T04:17:55.298Z,29.30
2022-10-12T04:20:22.134Z,32.70
2022-10-12T04:22:49.019Z,26.83
2022-10-12T04:25:15.919Z,26.50
2022-10-12T04:27:43.159Z,29.87
2022-10-12T04:30:10.923Z,32.00
2022-10-12T04:32:37.784Z,29.47
2022-10-12T04:35:04.844Z,29.77
2022-10-12T04:37:31.784Z,31.07
2022-10-12T04:39:58.751Z,30.60
2022-10-12T04:42:25.561Z,34.27
2022-10-12T04:44:52.382Z,27.33
2022-10-12T04:47:19.531Z,28.47
2022-10-12T04:49:46.389Z,32.80
2022-10-12T04:52:13.270Z,30.67
2022-10-12T04:54:40.329Z,28.40
2022-10-12T04:57:07.150Z,28.43
2022-10-12T04:59:33.937Z,30.70
2022-10-12T05:02:00.804Z,24.57
2022-10-12T05:04:27.693Z,30.40
2022-10-12T05:06:54.743Z,27.40
2022-10-12T05:09:21.676Z,28.43
2022-10-12T05:11:48.591Z,25.97
2022-10-12T05:14:15.628Z,30.03
2022-10-12T05:16:42.469Z,29.20
2022-10-12T05:19:09.469Z,28.43
2022-10-12T05:24:28.801Z,24.53
2022-10-12T05:26:56.895Z,31.43
2022-10-12T05:29:24.006Z,30.30
2022-10-12T05:31:50.855Z,29.97
2022-10-12T05:34:48.844Z,26.63
2022-10-12T05:40:15.971Z,28.13
2022-10-12T05:42:44.694Z,30.40
2022-10-12T05:45:12.075Z,31.20
2022-10-12T05:47:39.959Z,33.73
2022-10-12T05:50:07.650Z,30.67
2022-10-12T05:52:34.441Z,34.40
2022-10-12T05:55:01.322Z,26.90
2022-10-12T05:57:31.177Z,33.70
2022-10-12T05:59:58.318Z,28.83
2022-10-12T06:02:32.934Z,35.33
2022-10-12T06:05:05.778Z,27.63
2022-10-12T06:07:41.564Z,29.60
2022-10-12T06:10:30.069Z,28.97
2022-10-12T06:16:33.762Z,30.77
2022-10-12T06:19:00.609Z,32.00
2022-10-12T06:21:33.576Z,34.73
2022-10-12T06:29:37.013Z,33.80
2022-10-12T06:42:26.788Z,29.57
2022-10-12T06:45:11.735Z,31.20
2022-10-12T06:48:40.121Z,26.20
2022-10-12T07:01:56.874Z,30.63
2022-10-12T07:04:41.798Z,30.97
2022-10-12T07:18:13.516Z,29.97
2022-10-12T07:20:44.957Z,28.47
2022-10-12T07:31:30.924Z,28.43
2022-10-12T07:33:57.748Z,23.43
2022-10-12T07:36:58.197Z,27.60
2022-10-12T07:39:25.530Z,27.37
2022-10-12T07:41:52.880Z,24.90
2022-10-12T07:44:32.751Z,26.37
2022-10-12T07:46:59.662Z,25.97
2022-10-12T07:49:26.430Z,27.37
2022-10-12T07:51:53.716Z,23.33
2022-10-12T07:54:23.493Z,25.47
2022-10-12T07:56:53.825Z,23.17
2022-10-12T07:59:20.603Z,20.23
2022-10-12T08:01:47.598Z,23.47
2022-10-12T08:07:12.268Z,26.47
2022-10-12T08:09:57.977Z,24.07
2022-10-12T08:13:02.875Z,17.87
2022-10-12T08:15:29.851Z,19.37
2022-10-12T08:17:58.994Z,17.97
2022-10-12T08:20:34.983Z,24.10
2022-10-12T08:23:01.829Z,20.63
2022-10-12T08:25:29.252Z,19.83
2022-10-12T08:28:11.370Z,18.30
2022-10-12T08:42:56.609Z,15.77
2022-10-12T09:13:32.339Z,12.73
2022-10-12T09:17:12.977Z,14.57
2022-10-12T09:19:45.879Z,14.53
2022-10-12T09:22:40.458Z,14.03
2022-10-12T09:27:45.036Z,12.80
2022-10-12T09:30:15.671Z,13.53
2022-10-12T09:33:08.182Z,12.90
2022-10-12T09:35:36.971Z,11.57
2022-10-12T09:38:04.128Z,12.10
2022-10-12T09:43:08.918Z,13.47
2022-10-12T09:45:36.738Z,13.40
2022-10-12T09:48:22.441Z,15.50
2022-10-12T09:51:02.060Z,12.47
2022-10-12T09:53:51.241Z,11.23
2022-10-12T09:56:46.550Z,8.07
2022-10-12T09:59:32.182Z,9.77
2022-10-12T10:02:07.869Z,9.47
2022-10-12T10:04:35.298Z,9.63
2022-10-12T10:07:35.394Z,6.77
2022-10-12T10:10:30.139Z,9.30
2022-10-12T10:13:03.033Z,10.57
2022-10-12T10:15:31.527Z,7.73
2022-10-12T10:18:01.411Z,10.27
2022-10-12T10:20:43.479Z,7.53
2022-10-12T10:23:27.021Z,5.77
2022-10-12T10:26:08.160Z,7.20
2022-10-12T10:28:37.710Z,6.37
2022-10-12T10:31:22.229Z,7.37
2022-10-12T10:34:12.810Z,8.13
2022-10-12T10:36:56.002Z,4.63
2022-10-12T10:39:30.725Z,5.07
2022-10-12T10:42:10.356Z,6.27
2022-10-12T10:44:38.845Z,5.83
2022-10-12T10:47:13.367Z,6.27
2022-10-12T10:49:49.669Z,8.30
2022-10-12T10:52:24.275Z,8.70
2022-10-12T10:55:14.937Z,7.97
2022-10-12T10:57:48.379Z,6.00
2022-10-12T11:00:39.224Z,7.93
2022-10-12T11:06:06.727Z,8.33
2022-10-12T11:08:35.942Z,7.85
2022-10-12T11:11:18.304Z,9.07
2022-10-12T11:14:01.221Z,6.27
2022-10-12T11:16:36.271Z,5.43
2022-10-12T11:19:36.795Z,6.10
2022-10-12T11:22:24.389Z,8.55
2022-10-12T11:25:06.563Z,5.68
2022-10-12T11:27:40.657Z,7.10
2022-10-12T11:30:18.066Z,6.32
2022-10-12T11:32:45.444Z,6.68
2022-10-12T11:35:23.481Z,7.20
2022-10-12T11:38:03.182Z,4.88
2022-10-12T11:43:34.218Z,5.53
2022-10-12T11:46:08.157Z,6.75
2022-10-12T11:48:56.028Z,6.20
2022-10-12T11:51:22.821Z,5.65
2022-10-12T11:54:11.686Z,8.77
2022-10-12T11:56:48.830Z,5.55
2022-10-12T11:59:44.923Z,6.35
2022-10-12T12:02:29.790Z,6.72
2022-10-12T12:04:57.053Z,4.72
2022-10-12T12:07:45.577Z,6.50
2022-10-12T12:10:37.304Z,7.00
2022-10-12T12:13:19.404Z,5.65
2022-10-12T12:15:52.166Z,7.63
2022-10-12T12:19:08.919Z,6.05
2022-10-12T12:22:15.192Z,6.10
2022-10-12T12:25:08.011Z,7.80
2022-10-12T12:27:42.197Z,5.55
2022-10-12T12:33:15.753Z,4.18
2022-10-12T12:36:04.899Z,6.60
2022-10-12T12:38:51.440Z,6.10
2022-10-12T12:41:48.739Z,5.10
2022-10-12T12:44:34.070Z,8.70
2022-10-12T12:47:00.955Z,6.27
2022-10-12T12:49:46.980Z,7.83
2022-10-12T12:52:34.043Z,7.63
2022-10-12T12:55:16.535Z,6.67
2022-10-12T12:58:02.055Z,5.27
2022-10-12T13:03:59.477Z,7.40
2022-10-12T13:06:59.122Z,5.23
2022-10-12T13:09:48.770Z,6.17
2022-10-12T13:12:45.133Z,6.10
2022-10-12T13:15:22.099Z,8.33
2022-10-12T13:18:18.548Z,6.73
2022-10-12T13:20:54.734Z,3.47
2022-10-12T13:23:25.921Z,4.70
2022-10-12T13:26:03.981Z,4.93
2022-10-12T13:28:34.774Z,6.93
2022-10-12T13:31:09.244Z,6.87
2022-10-12T13:34:22.498Z,9.67
2022-10-12T13:37:00.544Z,6.63
2022-10-12T13:39:28.854Z,6.60
2022-10-12T13:42:01.591Z,4.77
2022-10-12T13:44:36.217Z,8.70
2022-10-12T13:47:24.641Z,5.33
2022-10-12T13:49:52.276Z,5.93
2022-10-12T13:52:27.274Z,8.00
2022-10-12T13:54:58.449Z,5.83
2022-10-12T13:57:31.977Z,5.07
2022-10-12T14:00:04.476Z,9.17
2022-10-12T14:02:34.417Z,7.10
2022-10-12T14:05:05.251Z,6.70
2022-10-12T14:07:44.558Z,6.80
2022-10-12T14:10:24.411Z,4.87
2022-10-12T14:12:53.646Z,5.40
2022-10-12T14:15:22.114Z,5.60
2022-10-12T14:17:52.908Z,5.37
2022-10-12T14:20:37.329Z,5.13
2022-10-12T14:23:14.594Z,5.63
2022-10-12T14:25:55.824Z,7.07
2022-10-12T14:28:33.360Z,5.20
2022-10-12T14:31:00.432Z,5.40
2022-10-12T14:33:29.371Z,5.90
2022-10-12T14:36:30.483Z,6.97
2022-10-12T14:39:14.669Z,7.03
2022-10-12T14:41:50.548Z,5.93
2022-10-12T14:44:21.116Z,3.83
2022-10-12T14:47:02.465Z,6.77
2022-10-12T14:49:40.805Z,7.17
2022-10-12T14:52:19.245Z,4.87
2022-10-12T14:54:58.844Z,3.83
2022-10-12T14:57:30.194Z,5.93
2022-10-12T14:59:57.895Z,8.57
2022-10-12T15:02:30.569Z,3.67
2022-10-12T15:04:58.154Z,5.60
2022-10-12T15:07:33.035Z,6.67
2022-10-12T15:10:00.848Z,4.30
2022-10-12T15:12:30.557Z,6.67
2022-10-12T15:15:01.080Z,5.60
2022-10-12T15:17:28.081Z,5.73
2022-10-12T15:19:54.896Z,5.73
2022-10-12T15:22:30.491Z,3.87
2022-10-12T15:24:57.431Z,4.67
2022-10-12T15:27:24.329Z,7.43
2022-10-12T15:29:51.138Z,5.53
2022-10-12T15:32:18.704Z,5.37
2022-10-12T15:34:45.843Z,4.00
2022-10-12T15:37:12.744Z,7.80
2022-10-12T15:39:39.757Z,5.10
2022-10-12T15:42:06.579Z,6.50
2022-10-12T15:44:40.892Z,5.77
2022-10-12T15:47:10.826Z,6.50
2022-10-12T15:49:37.949Z,8.20
2022-10-12T15:52:10.330Z,6.57
2022-10-12T15:54:37.758Z,7.70
2022-10-12T15:57:08.088Z,8.40
2022-10-12T15:59:35.009Z,7.83
2022-10-12T16:02:02.238Z,7.20
2022-10-12T16:04:29.319Z,7.20
2022-10-12T16:23:58.476Z,11.13
2022-10-12T16:37:04.033Z,9.37
2022-10-12T16:39:30.953Z,7.50
2022-10-12T16:42:40.760Z,9.17
2022-10-12T17:38:45.773Z,8.37
2022-10-12T17:41:29.306Z,9.57
2022-10-12T17:43:56.873Z,8.37
2022-10-12T17:46:39.536Z,10.27
2022-10-12T17:49:08.855Z,9.10
2022-10-12T17:51:39.061Z,8.57
2022-10-12T17:54:09.228Z,9.87
2022-10-12T18:00:09.855Z,11.20
2022-10-12T18:02:58.635Z,9.47
2022-10-12T18:12:40.046Z,9.93
2022-10-12T18:15:07.806Z,8.97
2022-10-12T18:28:21.483Z,10.30
2022-10-12T18:31:29.210Z,8.23
2022-10-12T18:34:09.784Z,10.87
2022-10-12T18:36:37.203Z,9.37
2022-10-12T18:39:04.737Z,11.87
2022-10-12T18:41:32.295Z,15.57
2022-10-12T18:44:01.225Z,11.57
2022-10-12T18:46:34.148Z,6.97
2022-10-12T18:49:05.016Z,8.70
2022-10-12T18:51:34.492Z,12.30
2022-10-12T18:54:02.270Z,13.70
2022-10-12T18:56:30.805Z,11.27
2022-10-12T18:58:59.942Z,11.40
2022-10-12T19:01:29.064Z,7.97
2022-10-12T19:03:57.349Z,9.93
2022-10-12T19:06:27.842Z,9.50
2022-10-12T19:08:56.311Z,10.60
2022-10-12T19:11:24.986Z,12.20
2022-10-12T19:14:02.592Z,10.87
2022-10-12T19:16:32.209Z,12.20
2022-10-12T19:19:01.925Z,10.43
2022-10-12T19:21:30.275Z,13.17
2022-10-12T19:23:57.327Z,10.70
2022-10-12T19:26:27.055Z,13.53
2022-10-12T19:28:55.542Z,11.93
2022-10-12T19:31:31.846Z,10.93
2022-10-12T19:34:02.800Z,8.03
2022-10-12T19:36:30.599Z,11.93
2022-10-12T19:38:58.774Z,9.30
2022-10-12T19:41:27.085Z,9.07
2022-10-12T19:43:57.417Z,13.33
2022-10-12T19:46:24.351Z,10.43
2022-10-12T19:49:00.694Z,13.57
2022-10-12T19:51:29.419Z,10.57
2022-10-12T19:53:58.706Z,11.20
2022-10-12T19:56:26.729Z,11.57
2022-10-12T20:01:38.821Z,10.83
2022-10-12T20:04:10.098Z,10.30
2022-10-12T20:06:37.625Z,11.73
2022-10-12T20:09:05.613Z,10.67
2022-10-12T20:11:35.950Z,11.80
2022-10-12T20:14:06.699Z,9.53
2022-10-12T20:16:35.275Z,11.30
2022-10-12T20:19:07.032Z,13.53
2022-10-12T20:21:37.123Z,11.10
2022-10-12T20:24:04.283Z,11.80
2022-10-12T20:26:31.408Z,12.63
2022-10-12T20:29:01.023Z,11.07
2022-10-12T20:31:29.498Z,13.57
2022-10-12T20:33:58.010Z,13.37
2022-10-12T20:36:31.762Z,15.07
2022-10-12T20:38:59.524Z,14.37
2022-10-12T20:41:32.780Z,11.83
2022-10-12T20:44:00.952Z,12.80
2022-10-12T20:46:28.975Z,13.20
2022-10-12T20:49:01.998Z,14.67
2022-10-12T20:51:37.077Z,14.67
2022-10-12T20:54:05.873Z,13.57
2022-10-12T20:56:33.605Z,13.40
2022-10-12T20:59:01.000Z,14.90
2022-10-12T21:01:36.966Z,13.43
2022-10-12T21:04:04.015Z,13.77
2022-10-12T21:06:30.847Z,14.60
2022-10-12T21:09:06.901Z,14.87
2022-10-12T21:11:43.795Z,12.17
2022-10-12T21:14:26.552Z,17.40
2022-10-12T21:16:56.080Z,12.80
2022-10-12T21:19:23.021Z,12.80
2022-10-12T21:21:49.892Z,15.27
2022-10-12T21:24:17.090Z,16.73
2022-10-12T21:26:44.474Z,14.67
2022-10-12T21:29:18.017Z,15.57
2022-10-12T21:31:45.543Z,13.47
2022-10-12T21:34:26.065Z,16.33
2022-10-12T21:36:54.242Z,14.40
2022-10-12T21:39:21.255Z,17.67
2022-10-12T21:41:48.093Z,12.40
2022-10-12T21:44:15.285Z,12.30
2022-10-12T21:46:42.356Z,12.77
2022-10-12T21:49:10.739Z,12.27
2022-10-12T21:51:43.685Z,11.63
2022-10-12T21:54:10.825Z,12.70
2022-10-12T21:56:39.821Z,12.10
2022-10-12T21:59:07.185Z,16.27
2022-10-12T22:01:43.862Z,13.67
2022-10-12T22:04:14.865Z,15.87
2022-10-12T22:06:43.382Z,14.53
2022-10-12T22:09:16.446Z,13.27
2022-10-12T22:11:44.079Z,14.03
2022-10-12T22:14:15.104Z,16.57
2022-10-12T22:16:43.378Z,12.80
2022-10-12T22:19:15.217Z,15.03
2022-10-12T22:21:42.319Z,14.13
2022-10-12T22:24:09.243Z,14.63
2022-10-12T22:26:36.320Z,13.93
2022-10-12T22:29:07.587Z,14.93
2022-10-12T22:31:35.489Z,15.53
2022-10-12T22:34:11.101Z,14.23
2022-10-12T22:36:47.234Z,14.63
2022-10-12T22:39:17.747Z,14.97
2022-10-12T22:41:56.886Z,18.90
2022-10-12T22:44:23.721Z,15.03
2022-10-12T22:46:50.556Z,14.97
2022-10-12T22:49:17.531Z,15.23
2022-10-12T22:51:44.399Z,18.60
2022-10-12T22:54:13.387Z,16.80
2022-10-12T22:56:41.814Z,15.63
2022-10-12T22:59:14.102Z,14.83
2022-10-12T23:01:44.461Z,18.40
2022-10-12T23:04:11.408Z,18.13
2022-10-12T23:06:38.277Z,14.80
2022-10-12T23:09:05.164Z,16.40
2022-10-12T23:11:32.494Z,17.47
2022-10-12T23:13:59.604Z,13.67
2022-10-12T23:16:29.611Z,15.60
2022-10-12T23:19:03.635Z,18.60
2022-10-12T23:21:38.286Z,15.60
2022-10-12T23:24:11.885Z,19.33
2022-10-12T23:26:38.720Z,19.93
2022-10-12T23:29:05.737Z,15.20
2022-10-12T23:31:35.736Z,18.53
2022-10-12T23:34:05.921Z,16.03
2022-10-12T23:36:33.010Z,18.17
2022-10-12T23:39:06.747Z,17.70
2022-10-12T23:41:33.691Z,20.57
2022-10-12T23:44:04.477Z,15.17
2022-10-12T23:46:31.429Z,21.23
2022-10-12T23:48:58.542Z,17.73
2022-10-12T23:51:25.346Z,16.63
2022-10-12T23:53:52.192Z,16.77
2022-10-12T23:56:19.130Z,18.17
2022-10-12T23:58:46.080Z,18.70
